Terminal Aerodrome Forecast
Issued by NWS

Home | Current Version | Previous Version | Text Only | Print | Product List | Glossary On
Versions: 1 2 3 4 5 6 7 8 9 10 11 12 13 14 15 16 17
772
FTUS41 KCAR 270525
TAFBHB
TAF
KBHB 270525Z 2706/2806 21004KT P6SM SCT250
     FM272100 18008KT 5SM -RA OVC035
     FM280300 13005KT 5SM -RA OVC005
     FM280500 15005KT P6SM VCSH OVC004=

USA.gov is the U.S. government's official web portal to all federal, state and local government web resources and services.